Flugplatz Uelzen

Für EDVU sind keine METAR/TAF Berichte vorhanden.
Es werden die Flugwettermeldungen vom Flugplatz Fassberg Airport in 20 km Entfernung angezeigt.

Bericht für ETHS

vom 27.01. um 06:20 UTC

Wind 8 kt aus 210°

Sichtweite 10 km oder mehr

aufgebrochene Bewölkung in 7000 ft

Temperatur 4.0°C

Taupunkt 2.0°C

Luftfeuchtigkeit 87%

Luftdruck 1009 hPa

ETHS 270620Z 21008KT 9999 BKN070 04/02 Q1009 BLU BLU BECMG WHT

Prognose für ETHS

vom 27.01. um 00:00 UTC

Zwischen 00:00 UTC und 00:00 UTC

Wind 8 kt aus 210°

Sichtweite 10 km oder mehr

keine signifikanten Wettererscheinungen

aufgebrochene Bewölkung in 4000 ft


Zwischen 00:00 und 00:00 UTC übergehend zu

Wind 8 kt aus 220°

Sichtweite 9000 m

keine signifikanten Wettererscheinungen

aufgebrochene Bewölkung in 2000 ft


Zwischen 00:00 UTC und 00:00 UTC zeitweise

Wind 15 kt aus 240°

Sichtweite 6000 m

schwacher Regen

aufgelockert bewölkt in 700 ft

aufgebrochene Bewölkung in 1400 ft

TAF ETHS 270519Z 2706/2715 21008KT 9999 NSW BKN040 BECMG 2706/2708 22008KT 9000 NSW BKN020 TEMPO 2707/2715 24015KT 6000 -RA SCT007 BKN014
Impressum